createdAt,value
2023-03-27T00:03:49.997Z,0.40
2023-03-27T00:08:02.510Z,0.50
2023-03-27T00:12:14.989Z,0.50
2023-03-27T00:16:28.398Z,0.40
2023-03-27T00:20:41.250Z,0.47
2023-03-27T00:24:53.744Z,0.40
2023-03-27T00:29:06.454Z,0.47
2023-03-27T00:33:18.927Z,0.30
2023-03-27T00:37:32.288Z,0.40
2023-03-27T00:41:45.362Z,0.73
2023-03-27T00:46:03.703Z,0.30
2023-03-27T00:50:22.039Z,0.38
2023-03-27T00:54:42.350Z,0.50
2023-03-27T00:59:01.035Z,0.43
2023-03-27T01:03:15.096Z,0.28
2023-03-27T01:07:29.485Z,0.55
2023-03-27T01:12:00.204Z,0.25
2023-03-27T01:16:22.482Z,0.30
2023-03-27T01:21:18.217Z,0.40
2023-03-27T01:26:16.278Z,0.50
2023-03-27T01:30:44.002Z,0.60
2023-03-27T01:35:29.413Z,0.40
2023-03-27T01:40:08.682Z,0.40
2023-03-27T01:44:52.371Z,0.43
2023-03-27T01:49:24.201Z,0.60
2023-03-27T01:53:52.940Z,0.40
2023-03-27T01:58:14.853Z,0.35
2023-03-27T02:02:31.784Z,0.40
2023-03-27T02:06:52.864Z,0.65
2023-03-27T02:11:05.917Z,0.70
2023-03-27T02:15:28.415Z,0.50
2023-03-27T02:20:13.030Z,0.60
2023-03-27T02:24:25.944Z,0.73
2023-03-27T02:29:16.265Z,0.90
2023-03-27T02:33:58.921Z,0.52
2023-03-27T02:38:31.821Z,0.43
2023-03-27T02:43:08.032Z,0.70
2023-03-27T02:47:31.867Z,0.73
2023-03-27T02:51:51.760Z,0.85
2023-03-27T02:56:07.616Z,0.60
2023-03-27T03:00:26.570Z,0.77
2023-03-27T03:04:57.875Z,1.27
2023-03-27T03:09:10.908Z,0.82
2023-03-27T03:13:23.513Z,1.40
2023-03-27T03:17:36.241Z,1.65
2023-03-27T03:21:50.158Z,0.82
2023-03-27T03:26:03.878Z,0.90
2023-03-27T03:30:17.629Z,1.13
2023-03-27T03:34:31.421Z,1.45
2023-03-27T03:38:43.892Z,1.27
2023-03-27T03:42:57.366Z,1.10
2023-03-27T03:47:09.946Z,2.28
2023-03-27T03:51:22.927Z,1.20
2023-03-27T03:55:35.458Z,1.58
2023-03-27T03:59:49.503Z,1.30
2023-03-27T04:04:03.062Z,1.00
2023-03-27T04:08:15.567Z,1.30
2023-03-27T04:12:28.892Z,0.68
2023-03-27T04:16:41.712Z,0.70
2023-03-27T04:21:04.524Z,0.68
2023-03-27T04:25:18.984Z,0.50
2023-03-27T04:29:31.467Z,0.70
2023-03-27T04:33:47.093Z,1.70
2023-03-27T04:38:03.422Z,0.98
2023-03-27T04:42:24.160Z,1.15
2023-03-27T04:46:36.900Z,1.20
2023-03-27T04:50:52.667Z,1.00
2023-03-27T04:55:07.304Z,1.83
2023-03-27T04:59:19.785Z,0.90
2023-03-27T05:03:33.222Z,1.08
2023-03-27T05:07:47.724Z,0.93
2023-03-27T05:12:00.209Z,0.77
2023-03-27T05:16:12.739Z,1.40
2023-03-27T05:20:26.329Z,0.60
2023-03-27T05:24:39.852Z,0.45
2023-03-27T05:28:54.945Z,0.50
2023-03-27T05:33:08.662Z,0.65
2023-03-27T05:37:27.392Z,0.20
2023-03-27T05:41:49.972Z,0.75
2023-03-27T05:46:03.515Z,0.93
2023-03-27T05:50:17.659Z,1.52
2023-03-27T05:54:30.294Z,0.60
2023-03-27T05:58:43.102Z,0.38
2023-03-27T06:03:01.164Z,0.80
2023-03-27T06:07:15.658Z,1.23
2023-03-27T06:11:28.472Z,1.10
2023-03-27T06:15:43.886Z,1.10
2023-03-27T06:19:57.914Z,0.90
2023-03-27T06:24:11.216Z,2.40
2023-03-27T06:28:28.102Z,1.33
2023-03-27T06:32:49.079Z,0.95
2023-03-27T06:37:04.405Z,0.73
2023-03-27T06:41:16.937Z,0.90
2023-03-27T06:45:48.185Z,1.35
2023-03-27T06:50:00.740Z,0.80
2023-03-27T06:54:14.297Z,2.60
2023-03-27T06:58:28.040Z,1.50
2023-03-27T07:02:40.631Z,1.67
2023-03-27T07:06:53.104Z,0.85
2023-03-27T07:11:11.285Z,0.90
2023-03-27T07:15:25.954Z,1.35
2023-03-27T07:19:38.555Z,0.75
2023-03-27T07:23:51.128Z,1.33
2023-03-27T07:28:10.714Z,1.40
2023-03-27T07:32:36.281Z,1.02
2023-03-27T07:36:49.993Z,2.47
2023-03-27T07:41:07.418Z,1.38
2023-03-27T07:45:22.680Z,3.10
2023-03-27T07:49:40.049Z,3.35
2023-03-27T07:53:59.124Z,1.48
2023-03-27T07:58:11.646Z,1.88
2023-03-27T08:02:25.946Z,1.98
2023-03-27T08:06:38.545Z,2.53
2023-03-27T08:10:53.006Z,1.77
2023-03-27T08:15:08.052Z,1.05
2023-03-27T08:19:22.062Z,2.85
2023-03-27T08:23:35.572Z,2.00
2023-03-27T08:27:48.285Z,1.88
2023-03-27T08:32:01.445Z,1.40
2023-03-27T08:36:15.253Z,1.17
2023-03-27T08:40:31.612Z,1.70
2023-03-27T08:44:45.212Z,1.67
2023-03-27T08:49:18.518Z,1.80
2023-03-27T08:53:54.149Z,1.35
2023-03-27T08:58:18.402Z,2.00
2023-03-27T09:02:54.566Z,2.13
2023-03-27T09:07:25.246Z,3.63
2023-03-27T09:11:52.811Z,2.10
2023-03-27T09:16:22.092Z,2.38
2023-03-27T09:24:59.031Z,3.13
2023-03-27T09:29:26.762Z,2.72
2023-03-27T09:33:42.267Z,2.38
2023-03-27T09:38:04.438Z,3.70
2023-03-27T09:42:31.898Z,3.05
2023-03-27T09:46:48.977Z,5.03
2023-03-27T09:51:03.183Z,4.15
2023-03-27T09:55:35.018Z,4.82
2023-03-27T10:00:10.287Z,2.50
2023-03-27T10:04:25.151Z,3.70
2023-03-27T10:08:47.475Z,3.83
2023-03-27T10:13:04.176Z,2.53
2023-03-27T10:17:32.106Z,2.28
2023-03-27T10:21:45.310Z,3.50
2023-03-27T10:26:02.483Z,3.88
2023-03-27T10:30:28.691Z,3.55
2023-03-27T10:34:56.498Z,2.35
2023-03-27T10:39:15.334Z,2.38
2023-03-27T10:43:44.631Z,2.63
2023-03-27T10:48:02.717Z,2.35
2023-03-27T10:52:26.092Z,2.95
2023-03-27T10:56:54.602Z,3.30
2023-03-27T11:01:19.036Z,1.48
2023-03-27T11:05:39.454Z,2.42
2023-03-27T11:10:07.394Z,3.00
2023-03-27T11:14:27.418Z,2.70
2023-03-27T11:18:48.048Z,2.03
2023-03-27T11:23:10.203Z,2.33
2023-03-27T11:27:36.878Z,1.55
2023-03-27T11:31:54.609Z,2.38
2023-03-27T11:36:50.252Z,2.03
2023-03-27T11:41:02.780Z,1.42
2023-03-27T11:45:18.958Z,1.75
2023-03-27T11:50:07.330Z,1.58
2023-03-27T11:54:51.391Z,2.07
2023-03-27T11:59:32.072Z,2.33
2023-03-27T12:04:32.813Z,1.98
2023-03-27T12:09:22.429Z,1.30
2023-03-27T12:14:14.134Z,0.80
2023-03-27T12:19:17.306Z,1.35
2023-03-27T12:24:00.699Z,1.00
2023-03-27T12:33:29.892Z,1.05
2023-03-27T12:37:50.078Z,1.00
2023-03-27T12:42:14.848Z,1.60
2023-03-27T12:46:27.726Z,0.70
2023-03-27T12:50:52.088Z,1.10
2023-03-27T12:55:33.605Z,1.00
2023-03-27T12:59:49.010Z,0.65
2023-03-27T13:04:31.353Z,0.63
2023-03-27T13:09:09.772Z,0.32
2023-03-27T13:14:10.843Z,1.30
2023-03-27T13:18:58.276Z,0.50
2023-03-27T13:23:42.059Z,0.95
2023-03-27T13:28:37.932Z,0.50
2023-03-27T13:33:24.906Z,0.40
2023-03-27T13:37:38.841Z,0.70
2023-03-27T13:42:01.843Z,0.90
2023-03-27T13:46:19.863Z,0.93
2023-03-27T13:51:16.386Z,0.73
2023-03-27T13:55:49.327Z,0.93
2023-03-27T14:00:44.628Z,1.02
2023-03-27T14:05:27.946Z,0.60
2023-03-27T14:10:09.283Z,1.38
2023-03-27T14:15:05.142Z,0.82
2023-03-27T14:19:58.513Z,0.93
2023-03-27T14:24:41.883Z,0.80
2023-03-27T14:29:01.811Z,0.60
2023-03-27T14:33:20.963Z,0.50
2023-03-27T14:37:36.997Z,0.73
2023-03-27T14:42:02.877Z,0.60
2023-03-27T14:46:27.453Z,0.30
2023-03-27T14:50:40.699Z,0.60
2023-03-27T14:54:55.848Z,0.40
2023-03-27T14:59:16.394Z,0.40
2023-03-27T15:03:36.001Z,0.80
2023-03-27T15:07:51.323Z,0.70
2023-03-27T15:12:04.965Z,0.68
2023-03-27T15:16:22.900Z,0.82
2023-03-27T15:20:38.120Z,0.60
2023-03-27T15:24:57.819Z,0.63
2023-03-27T15:29:45.627Z,0.57
2023-03-27T15:34:05.618Z,1.10
2023-03-27T15:38:33.869Z,0.63
2023-03-27T15:42:55.499Z,0.55
2023-03-27T15:47:26.286Z,1.05
2023-03-27T15:51:38.826Z,0.57
2023-03-27T15:55:56.658Z,1.15
2023-03-27T16:00:15.425Z,3.42
2023-03-27T16:04:47.612Z,0.53
2023-03-27T16:09:02.028Z,1.08
2023-03-27T16:13:29.028Z,0.57
2023-03-27T16:17:46.602Z,0.63
2023-03-27T16:22:09.105Z,0.95
2023-03-27T16:26:31.379Z,0.65
2023-03-27T16:30:44.055Z,1.58
2023-03-27T16:34:56.477Z,1.10
2023-03-27T16:39:10.620Z,0.70
2023-03-27T16:43:23.095Z,1.40
2023-03-27T16:47:35.704Z,1.52
2023-03-27T16:51:48.224Z,1.20
2023-03-27T16:56:03.733Z,0.70
2023-03-27T17:00:24.238Z,1.30
2023-03-27T17:04:46.355Z,1.00
2023-03-27T17:08:58.952Z,0.75
2023-03-27T17:13:11.736Z,1.52
2023-03-27T17:17:34.271Z,1.90
2023-03-27T17:21:46.914Z,0.60
2023-03-27T17:26:04.283Z,1.08
2023-03-27T17:30:26.891Z,0.82
2023-03-27T17:34:47.568Z,1.38
2023-03-27T17:39:06.862Z,1.88
2023-03-27T17:47:35.926Z,0.88
2023-03-27T17:51:48.337Z,0.52
2023-03-27T17:56:01.171Z,0.65
2023-03-27T18:00:14.942Z,1.23
2023-03-27T18:04:27.432Z,0.90
2023-03-27T18:08:40.014Z,0.60
2023-03-27T18:12:52.458Z,0.90
2023-03-27T18:17:05.020Z,1.38
2023-03-27T18:21:17.496Z,0.90
2023-03-27T18:25:30.229Z,1.40
2023-03-27T18:29:43.396Z,1.20
2023-03-27T18:33:55.989Z,0.88
2023-03-27T18:38:08.581Z,0.70
2023-03-27T18:42:21.084Z,1.00
2023-03-27T18:46:33.585Z,1.63
2023-03-27T18:50:46.060Z,1.40
2023-03-27T18:54:58.578Z,1.55
2023-03-27T18:59:11.834Z,1.23
2023-03-27T19:03:26.914Z,1.50
2023-03-27T19:07:44.844Z,0.77
2023-03-27T19:11:58.083Z,1.67
2023-03-27T19:16:14.549Z,1.15
2023-03-27T19:20:28.509Z,1.48
2023-03-27T19:24:42.027Z,1.48
2023-03-27T19:28:54.581Z,1.33
2023-03-27T19:33:07.528Z,2.97
2023-03-27T19:37:20.722Z,1.42
2023-03-27T19:41:33.861Z,1.42
2023-03-27T19:46:14.284Z,1.77
2023-03-27T19:50:27.941Z,1.60
2023-03-27T19:54:40.445Z,1.70
2023-03-27T19:58:53.147Z,2.83
2023-03-27T20:03:10.970Z,2.03
2023-03-27T20:07:23.541Z,1.50
2023-03-27T20:11:36.214Z,3.38
2023-03-27T20:15:52.117Z,2.38
2023-03-27T20:20:11.368Z,1.88
2023-03-27T20:24:24.432Z,1.60
2023-03-27T20:28:37.186Z,1.70
2023-03-27T20:32:49.648Z,0.65
2023-03-27T20:37:04.334Z,1.08
2023-03-27T20:41:16.832Z,1.38
2023-03-27T20:45:31.620Z,1.50
2023-03-27T20:49:48.774Z,0.77
2023-03-27T20:54:01.282Z,2.08
2023-03-27T20:58:13.822Z,1.17
2023-03-27T21:02:26.477Z,0.85
2023-03-27T21:06:40.828Z,1.50
2023-03-27T21:10:55.004Z,1.90
2023-03-27T21:15:08.094Z,1.67
2023-03-27T21:19:29.689Z,1.75
2023-03-27T21:23:42.306Z,7.13
2023-03-27T21:27:55.034Z,1.73
2023-03-27T21:32:16.808Z,2.33
2023-03-27T21:36:29.994Z,2.28
2023-03-27T21:40:42.824Z,1.80
2023-03-27T21:44:57.231Z,1.05
2023-03-27T21:49:09.877Z,1.88
2023-03-27T21:53:22.331Z,1.65
2023-03-27T21:57:44.769Z,2.25
2023-03-27T22:01:57.505Z,2.88
2023-03-27T22:06:13.539Z,2.67
2023-03-27T22:10:26.186Z,1.40
2023-03-27T22:14:38.696Z,1.65
2023-03-27T22:18:51.447Z,1.10
2023-03-27T22:23:03.904Z,2.13
2023-03-27T22:27:17.263Z,3.97
2023-03-27T22:31:30.070Z,3.97
2023-03-27T22:35:49.758Z,2.38
2023-03-27T22:40:02.318Z,2.90
2023-03-27T22:44:14.774Z,2.78
2023-03-27T22:48:27.283Z,1.27
2023-03-27T22:52:40.175Z,1.77
2023-03-27T22:56:55.876Z,1.85
2023-03-27T23:01:14.310Z,0.75
2023-03-27T23:05:26.971Z,2.35
2023-03-27T23:09:39.438Z,2.25
2023-03-27T23:13:51.889Z,2.55
2023-03-27T23:18:05.556Z,1.48
2023-03-27T23:22:18.084Z,2.70
2023-03-27T23:26:30.535Z,2.55
2023-03-27T23:30:45.328Z,2.17
2023-03-27T23:34:57.759Z,2.45
2023-03-27T23:39:10.216Z,1.65
2023-03-27T23:43:22.625Z,1.48
2023-03-27T23:47:35.080Z,1.65
2023-03-27T23:51:47.692Z,1.98
2023-03-27T23:56:01.300Z,3.88
